Aérodrome :
LOGIN :

S'inscrire | Disclaimer

   EN    FR    IT 

 










Légende :    VFR   VFR Marginal   IFR   IFR Intensif   IFR Très Intensif
Visi : 
Plafond : 
>= 8 km
>= 3000ft
5 à 8 km
1000 à 3000 ft
1500m à 5 km
500 à 1000 ft
800 à 1500m
200 à 500 ft
< 800m
< 200 ft
Symboles :   Orages  Brouillard  Fortes neiges  Fortes précipitations  Vent > 20 kt
SIGMETs :   Divers  Orages  Givrage  Turbulence  Onde Orograph.  Cendres Volcan.







- Altitude de l'aérodrome : 453 ft
- Code IATA : SBK
- Voir les cartes d'approche


LFRT - St Brieuc Armor

DERNIER METAR :
  • 221800Z AUTO 24014KT 200V270 9999 OVC011 19/18 Q1014

METARs EXPIRÉS :
  • 221730Z AUTO 24012KT 210V270 9999 OVC010 19/18 Q1014
  • 221700Z AUTO 24014KT 200V270 9999 BKN009 OVC013 19/18 Q1014
  • 221630Z AUTO 24012KT 200V260 6000 -RADZ BKN010 OVC015 19/18 Q1013
  • 221600Z AUTO 23012G22KT 180V260 6000 -RA BKN010 OVC015 19/18 Q1013
  • 221530Z AUTO 23011KT 160V260 9999 -DZ BKN011 OVC018 19/18 Q1014

Prévision TAF périmée.
Pas de NOTAMs connus pour ce terrain.
1 SIGMET publié pour la FIR Brest (LFRR) :
 
Turbulence forte
LFRR SIGMET 3 VALID 221600/222000 LFPW
LFRR BREST FIR/UIR SEV TURB FCST WI N4915 W00015 - N4815 W00015 - N4815 W00300 - N4915 W00230 - N4915 W00015 SFC/FL060 MOV E 15KT WKN=



MET'MAP, la Météo Aéronautique d'un coup d'oeil ! - Copyright ORBIFLY Décembre 2007 - Disclaimer

ORBIFLY MET'MAP TEAM :

Programmation & Développement : Alexandra Zaïnal
Conception & Développement : Baudouin d'Aumeries
Co-Programmation & Développement : Marc-Olivier Méhu
Soutien technique & logistique : Manuel Goepfert

Contact : metmap@orbifly.com




SOURCES & CREDITS :

   NOAA